createdAt,value
2018-08-12T00:01:39.461Z,15.93
2018-08-12T00:04:08.164Z,15.97
2018-08-12T00:06:37.333Z,16.13
2018-08-12T00:09:09.090Z,15.96
2018-08-12T00:11:37.701Z,15.82
2018-08-12T00:14:06.457Z,15.83
2018-08-12T00:16:36.063Z,15.69
2018-08-12T00:19:05.154Z,15.52
2018-08-12T00:21:33.712Z,15.53
2018-08-12T00:24:04.017Z,15.52
2018-08-12T00:26:32.939Z,15.37
2018-08-12T00:29:01.839Z,15.24
2018-08-12T00:31:31.418Z,15.18
2018-08-12T00:33:59.962Z,15.04
2018-08-12T00:36:29.339Z,14.86
2018-08-12T00:38:57.997Z,14.62
2018-08-12T00:41:26.600Z,14.73
2018-08-12T00:43:55.156Z,14.71
2018-08-12T00:46:23.967Z,14.76
2018-08-12T00:48:52.786Z,14.75
2018-08-12T00:51:22.672Z,14.74
2018-08-12T00:53:51.258Z,14.77
2018-08-12T00:56:19.917Z,14.99
2018-08-12T00:58:48.692Z,14.88
2018-08-12T01:01:17.248Z,14.91
2018-08-12T01:03:46.663Z,14.71
2018-08-12T01:06:15.652Z,14.84
2018-08-12T01:08:44.192Z,14.66
2018-08-12T01:11:13.080Z,14.63
2018-08-12T01:13:41.655Z,14.30
2018-08-12T01:16:10.265Z,14.32
2018-08-12T01:18:39.089Z,14.04
2018-08-12T01:21:07.925Z,14.07
2018-08-12T01:23:36.788Z,13.94
2018-08-12T01:26:06.568Z,14.04
2018-08-12T01:28:35.332Z,13.93
2018-08-12T01:31:04.414Z,13.75
2018-08-12T01:33:33.007Z,13.73
2018-08-12T01:36:02.284Z,13.66
2018-08-12T01:38:31.505Z,13.61
2018-08-12T01:41:00.034Z,13.81
2018-08-12T01:43:28.838Z,13.97
2018-08-12T01:45:58.163Z,13.97
2018-08-12T01:48:26.784Z,13.98
2018-08-12T01:50:55.540Z,13.95
2018-08-12T01:53:24.093Z,14.03
2018-08-12T01:55:52.638Z,13.95
2018-08-12T01:58:22.464Z,14.13
2018-08-12T02:00:51.037Z,14.18
2018-08-12T02:03:20.069Z,13.98
2018-08-12T02:05:48.668Z,13.74
2018-08-12T02:08:17.270Z,13.89
2018-08-12T02:10:46.379Z,14.00
2018-08-12T02:13:15.376Z,13.99
2018-08-12T02:15:45.754Z,13.86
2018-08-12T02:18:15.815Z,14.02
2018-08-12T02:20:44.371Z,13.91
2018-08-12T02:23:12.962Z,13.81
2018-08-12T02:25:41.530Z,13.85
2018-08-12T02:28:10.191Z,13.60
2018-08-12T02:30:39.938Z,13.76
2018-08-12T02:33:08.510Z,13.53
2018-08-12T02:35:37.656Z,13.44
2018-08-12T02:38:06.265Z,13.33
2018-08-12T02:40:34.874Z,13.09
2018-08-12T02:43:04.396Z,13.06
2018-08-12T02:45:32.941Z,12.87
2018-08-12T02:48:01.536Z,12.78
2018-08-12T02:50:30.079Z,12.83
2018-08-12T02:52:58.733Z,12.90
2018-08-12T02:55:27.525Z,12.79
2018-08-12T02:57:56.102Z,12.81
2018-08-12T03:00:26.454Z,12.67
2018-08-12T03:02:55.625Z,12.56
2018-08-12T03:05:24.258Z,12.39
2018-08-12T03:07:53.117Z,12.47
2018-08-12T03:10:21.685Z,12.40
2018-08-12T03:12:50.574Z,12.46
2018-08-12T03:15:19.163Z,12.32
2018-08-12T03:17:47.818Z,12.36
2018-08-12T03:20:16.420Z,12.26
2018-08-12T03:22:46.108Z,12.19
2018-08-12T03:25:14.678Z,12.38
2018-08-12T03:27:44.122Z,12.25
2018-08-12T03:30:12.788Z,12.19
2018-08-12T03:32:42.170Z,12.37
2018-08-12T03:35:10.750Z,12.37
2018-08-12T03:37:39.369Z,12.27
2018-08-12T03:40:11.450Z,12.43
2018-08-12T03:42:40.161Z,12.26
2018-08-12T03:45:09.287Z,12.21
2018-08-12T03:47:37.849Z,12.08
2018-08-12T03:50:07.685Z,11.98
2018-08-12T03:52:36.365Z,11.96
2018-08-12T03:55:06.165Z,11.91
2018-08-12T03:57:34.768Z,11.90
2018-08-12T04:00:03.568Z,12.01
2018-08-12T04:02:33.386Z,12.00
2018-08-12T04:05:02.189Z,12.02
2018-08-12T04:07:30.748Z,12.09
2018-08-12T04:09:59.578Z,12.25
2018-08-12T04:12:29.305Z,12.33
2018-08-12T04:14:58.903Z,12.52
2018-08-12T04:17:28.575Z,12.41
2018-08-12T04:19:59.899Z,12.60
2018-08-12T04:22:28.904Z,12.57
2018-08-12T04:24:57.649Z,12.60
2018-08-12T04:27:26.657Z,12.68
2018-08-12T04:29:55.202Z,12.61
2018-08-12T04:32:23.815Z,12.61
2018-08-12T04:34:53.153Z,12.66
2018-08-12T04:37:22.188Z,12.56
2018-08-12T04:39:50.800Z,12.67
2018-08-12T04:42:19.349Z,12.60
2018-08-12T04:44:48.271Z,12.59
2018-08-12T04:47:18.681Z,12.60
2018-08-12T04:49:47.256Z,12.66
2018-08-12T04:52:16.859Z,12.44
2018-08-12T04:54:45.686Z,12.50
2018-08-12T04:57:14.666Z,12.60
2018-08-12T04:59:43.471Z,12.69
2018-08-12T05:02:12.081Z,12.72
2018-08-12T05:04:41.354Z,12.79
2018-08-12T05:07:10.280Z,12.82
2018-08-12T05:09:39.158Z,12.68
2018-08-12T05:12:07.761Z,12.79
2018-08-12T05:14:36.813Z,12.91
2018-08-12T05:17:05.734Z,12.93
2018-08-12T05:19:34.777Z,12.83
2018-08-12T05:22:03.626Z,12.96
2018-08-12T05:24:32.665Z,12.65
2018-08-12T05:27:01.604Z,12.89
2018-08-12T05:29:30.613Z,12.94
2018-08-12T05:31:59.179Z,12.98
2018-08-12T05:34:28.253Z,12.96
2018-08-12T05:36:56.860Z,13.01
2018-08-12T05:39:25.659Z,13.11
2018-08-12T05:41:54.221Z,13.28
2018-08-12T05:44:22.899Z,13.35
2018-08-12T05:46:51.499Z,13.40
2018-08-12T05:49:20.574Z,13.51
2018-08-12T05:51:49.897Z,13.71
2018-08-12T05:54:18.511Z,13.75
2018-08-12T05:56:48.257Z,13.66
2018-08-12T05:59:16.859Z,13.87
2018-08-12T06:01:47.028Z,13.98
2018-08-12T06:04:15.941Z,14.00
2018-08-12T06:06:44.545Z,13.89
2018-08-12T06:09:14.197Z,13.96
2018-08-12T06:11:43.181Z,14.15
2018-08-12T06:14:12.629Z,14.30
2018-08-12T06:16:41.575Z,14.40
2018-08-12T06:19:10.773Z,14.54
2018-08-12T06:21:39.328Z,14.58
2018-08-12T06:24:07.923Z,14.75
2018-08-12T06:26:38.130Z,14.78
2018-08-12T06:29:07.772Z,14.95
2018-08-12T06:31:36.555Z,14.92
2018-08-12T06:34:05.159Z,15.02
2018-08-12T06:36:33.934Z,15.00
2018-08-12T06:39:03.530Z,15.16
2018-08-12T06:41:32.079Z,15.08
2018-08-12T06:44:00.651Z,15.08
2018-08-12T06:46:29.272Z,15.43
2018-08-12T06:48:58.382Z,15.46
2018-08-12T06:51:26.958Z,15.74
2018-08-12T06:53:56.001Z,15.91
2018-08-12T06:56:24.575Z,16.73
2018-08-12T06:58:53.155Z,16.85
2018-08-12T07:01:22.364Z,16.97
2018-08-12T07:03:51.957Z,16.81
2018-08-12T07:06:20.509Z,16.69
2018-08-12T07:08:49.058Z,16.54
2018-08-12T07:11:17.843Z,16.69
2018-08-12T07:13:46.455Z,16.67
2018-08-12T07:16:15.067Z,16.69
2018-08-12T07:18:43.662Z,16.75
2018-08-12T07:21:12.259Z,16.90
2018-08-12T07:23:41.193Z,16.96
2018-08-12T07:26:10.634Z,16.93
2018-08-12T07:28:40.261Z,16.97
2018-08-12T07:31:10.096Z,16.90
2018-08-12T07:33:38.963Z,17.07
2018-08-12T07:36:07.784Z,17.33
2018-08-12T07:38:36.610Z,17.40
2018-08-12T07:41:05.199Z,17.61
2018-08-12T07:43:33.794Z,17.65
2018-08-12T07:46:03.709Z,17.56
2018-08-12T07:48:33.505Z,17.55
2018-08-12T07:51:02.615Z,17.56
2018-08-12T07:53:31.611Z,17.35
2018-08-12T07:56:00.797Z,17.91
2018-08-12T07:58:29.595Z,18.59
2018-08-12T08:00:58.146Z,18.67
2018-08-12T08:03:27.056Z,19.29
2018-08-12T08:05:59.646Z,19.37
2018-08-12T08:08:28.216Z,19.28
2018-08-12T08:10:56.905Z,19.49
2018-08-12T08:13:26.576Z,19.40
2018-08-12T08:15:55.121Z,19.23
2018-08-12T08:18:24.533Z,19.49
2018-08-12T08:20:53.211Z,19.20
2018-08-12T08:23:22.860Z,19.80
2018-08-12T08:25:51.467Z,20.23
2018-08-12T08:28:20.908Z,20.22
2018-08-12T08:30:50.871Z,19.80
2018-08-12T08:33:19.825Z,19.95
2018-08-12T08:35:48.429Z,20.01
2018-08-12T08:38:18.392Z,20.66
2018-08-12T08:40:47.297Z,20.38
2018-08-12T08:43:16.190Z,19.95
2018-08-12T08:45:45.256Z,19.83
2018-08-12T08:48:13.818Z,20.40
2018-08-12T08:50:43.346Z,20.38
2018-08-12T08:53:12.876Z,20.54
2018-08-12T08:55:41.649Z,20.88
2018-08-12T08:58:10.136Z,20.67
2018-08-12T09:00:38.738Z,21.51
2018-08-12T09:03:08.570Z,21.45
2018-08-12T09:05:37.370Z,21.51
2018-08-12T09:08:06.565Z,20.91
2018-08-12T09:10:36.141Z,21.14
2018-08-12T09:13:04.781Z,20.97
2018-08-12T09:15:33.399Z,20.80
2018-08-12T09:18:02.322Z,21.25
2018-08-12T09:20:30.941Z,21.51
2018-08-12T09:22:59.528Z,21.89
2018-08-12T09:25:28.166Z,21.94
2018-08-12T09:27:57.534Z,22.07
2018-08-12T09:30:26.550Z,22.27
2018-08-12T09:32:56.116Z,22.61
2018-08-12T09:35:25.103Z,22.23
2018-08-12T09:37:54.046Z,22.47
2018-08-12T09:40:22.742Z,22.43
2018-08-12T09:42:51.852Z,22.38
2018-08-12T09:45:21.665Z,22.22
2018-08-12T09:47:50.237Z,22.49
2018-08-12T09:50:20.062Z,22.61
2018-08-12T09:52:49.958Z,23.25
2018-08-12T09:55:19.852Z,23.77
2018-08-12T09:57:48.444Z,22.75
2018-08-12T10:00:23.156Z,22.63
2018-08-12T10:02:54.177Z,23.74
2018-08-12T10:05:23.161Z,24.02
2018-08-12T10:07:52.781Z,24.36
2018-08-12T10:10:21.690Z,24.37
2018-08-12T10:12:50.711Z,24.50
2018-08-12T10:15:19.860Z,24.06
2018-08-12T10:17:55.651Z,24.49
2018-08-12T10:20:24.371Z,24.77
2018-08-12T10:22:59.891Z,24.64
2018-08-12T10:25:29.656Z,24.71
2018-08-12T10:27:58.568Z,25.19
2018-08-12T10:30:27.154Z,25.60
2018-08-12T10:32:56.077Z,25.76
2018-08-12T10:35:24.724Z,26.02
2018-08-12T10:37:53.923Z,25.94
2018-08-12T10:40:22.484Z,26.17
2018-08-12T10:42:52.046Z,25.91
2018-08-12T10:45:21.405Z,26.08
2018-08-12T10:47:49.963Z,24.68
2018-08-12T10:50:20.390Z,24.78
2018-08-12T10:52:50.377Z,24.96
2018-08-12T10:55:21.440Z,25.01
2018-08-12T10:57:50.535Z,25.09
2018-08-12T11:00:24.539Z,25.07
2018-08-12T11:02:53.451Z,25.74
2018-08-12T11:05:23.497Z,25.73
2018-08-12T11:07:53.996Z,26.41
2018-08-12T11:10:24.141Z,26.77
2018-08-12T11:12:53.372Z,26.51
2018-08-12T11:15:21.867Z,26.61
2018-08-12T11:17:51.409Z,27.39
2018-08-12T11:20:20.217Z,27.82
2018-08-12T11:22:49.979Z,28.47
2018-08-12T11:25:18.602Z,28.06
2018-08-12T11:27:47.713Z,27.51
2018-08-12T11:30:17.948Z,25.59
2018-08-12T11:32:47.289Z,25.29
2018-08-12T11:35:17.846Z,26.88
2018-08-12T11:37:47.035Z,27.68
2018-08-12T11:40:16.065Z,28.14
2018-08-12T11:42:44.949Z,27.07
2018-08-12T11:45:15.005Z,27.43
2018-08-12T11:47:44.298Z,26.68
2018-08-12T11:50:13.464Z,26.60
2018-08-12T11:52:42.902Z,27.25
2018-08-12T11:55:13.307Z,26.52
2018-08-12T11:57:42.687Z,26.73
2018-08-12T12:00:13.962Z,26.66
2018-08-12T12:02:43.183Z,27.65
2018-08-12T12:05:13.461Z,26.01
2018-08-12T12:07:42.196Z,27.12
2018-08-12T12:10:16.827Z,27.24
2018-08-12T12:12:47.729Z,27.27
2018-08-12T12:15:17.916Z,28.10
2018-08-12T12:17:47.543Z,28.07
2018-08-12T12:20:18.043Z,27.44
2018-08-12T12:22:48.862Z,28.24
2018-08-12T12:25:20.272Z,26.53
2018-08-12T12:27:49.231Z,27.06
2018-08-12T12:30:20.703Z,26.92
2018-08-12T12:32:51.070Z,27.65
2018-08-12T12:35:20.579Z,26.73
2018-08-12T12:37:49.245Z,28.04
2018-08-12T12:40:18.920Z,28.80
2018-08-12T12:42:48.159Z,28.77
2018-08-12T12:45:17.200Z,29.28
2018-08-12T12:47:46.030Z,29.37
2018-08-12T12:50:20.468Z,28.74
2018-08-12T12:52:49.886Z,29.54
2018-08-12T12:55:20.041Z,28.92
2018-08-12T12:57:48.984Z,29.49
2018-08-12T13:00:20.574Z,29.48
2018-08-12T13:02:49.610Z,29.63
2018-08-12T13:05:20.146Z,29.51
2018-08-12T13:07:51.196Z,29.80
2018-08-12T13:10:21.150Z,28.80
2018-08-12T13:12:50.686Z,29.14
2018-08-12T13:15:19.474Z,28.33
2018-08-12T13:17:48.939Z,27.66
2018-08-12T13:20:19.326Z,28.17
2018-08-12T13:22:48.841Z,29.04
2018-08-12T13:25:19.498Z,29.31
2018-08-12T13:27:48.509Z,29.46
2018-08-12T13:30:18.591Z,28.92
2018-08-12T13:32:48.080Z,28.31
2018-08-12T13:35:17.052Z,28.18
2018-08-12T13:37:46.021Z,29.12
2018-08-12T13:40:19.028Z,29.17
2018-08-12T13:42:54.572Z,28.61
2018-08-12T13:45:24.751Z,27.25
2018-08-12T13:47:54.817Z,28.18
2018-08-12T13:50:24.451Z,27.78
2018-08-12T13:52:53.772Z,27.86
2018-08-12T13:55:23.422Z,29.26
2018-08-12T13:57:53.783Z,29.99
2018-08-12T14:00:26.487Z,29.27
2018-08-12T14:02:55.416Z,28.25
2018-08-12T14:05:24.461Z,29.06
2018-08-12T14:10:56.702Z,29.17
2018-08-12T14:13:30.117Z,28.85
2018-08-12T14:15:58.910Z,29.14
2018-08-12T14:18:27.507Z,29.74
2018-08-12T14:20:56.388Z,30.40
2018-08-12T14:23:25.585Z,30.41
2018-08-12T14:25:54.126Z,30.28
2018-08-12T14:28:22.703Z,30.61
2018-08-12T14:30:51.257Z,30.31
2018-08-12T14:33:21.215Z,30.22
2018-08-12T14:35:49.862Z,30.32
2018-08-12T14:38:18.474Z,30.13
2018-08-12T14:40:47.044Z,30.45
2018-08-12T14:43:15.632Z,30.20
2018-08-12T14:45:45.326Z,29.61
2018-08-12T14:48:13.884Z,30.16
2018-08-12T14:50:42.833Z,29.31
2018-08-12T14:53:11.625Z,30.58
2018-08-12T14:55:40.895Z,30.15
2018-08-12T14:58:09.480Z,30.15
2018-08-12T15:00:38.628Z,29.74
2018-08-12T15:03:23.756Z,30.02
2018-08-12T15:05:55.796Z,29.92
2018-08-12T15:08:24.569Z,30.69
2018-08-12T15:10:53.184Z,30.29
2018-08-12T15:13:21.752Z,29.68
2018-08-12T15:15:50.851Z,29.73
2018-08-12T15:18:20.461Z,30.41
2018-08-12T15:20:49.296Z,29.23
2018-08-12T15:23:17.850Z,29.54
2018-08-12T15:25:46.403Z,29.62
2018-08-12T15:28:15.818Z,28.92
2018-08-12T15:30:44.405Z,28.75
2018-08-12T15:33:12.936Z,28.03
2018-08-12T15:35:41.611Z,28.49
2018-08-12T15:38:10.611Z,28.73
2018-08-12T15:40:41.136Z,29.10
2018-08-12T15:43:09.688Z,28.28
2018-08-12T15:45:38.338Z,28.69
2018-08-12T15:48:08.129Z,29.12
2018-08-12T15:50:36.775Z,29.26
2018-08-12T15:53:06.601Z,29.22
2018-08-12T15:55:35.213Z,29.21
2018-08-12T15:58:03.832Z,28.41
2018-08-12T16:00:32.425Z,29.11
2018-08-12T16:03:02.206Z,28.90
2018-08-12T16:05:31.143Z,28.62
2018-08-12T16:08:00.280Z,28.74
2018-08-12T16:10:29.173Z,28.28
2018-08-12T16:12:57.728Z,27.88
2018-08-12T16:15:26.962Z,28.29
2018-08-12T16:17:55.532Z,27.94
2018-08-12T16:20:24.115Z,28.13
2018-08-12T16:22:52.746Z,28.29
2018-08-12T16:25:22.123Z,28.63
2018-08-12T16:27:51.129Z,28.67
2018-08-12T16:30:20.022Z,28.81
2018-08-12T16:32:48.639Z,28.67
2018-08-12T16:35:18.019Z,28.37
2018-08-12T16:37:47.185Z,28.36
2018-08-12T16:40:17.930Z,28.62
2018-08-12T16:42:47.018Z,28.39
2018-08-12T16:45:17.197Z,28.50
2018-08-12T16:47:46.236Z,28.68
2018-08-12T16:50:15.682Z,28.68
2018-08-12T16:52:45.922Z,28.74
2018-08-12T16:55:16.324Z,28.77
2018-08-12T16:57:46.218Z,28.55
2018-08-12T17:00:17.165Z,28.09
2018-08-12T17:02:46.405Z,28.08
2018-08-12T17:05:17.955Z,28.12
2018-08-12T17:07:47.338Z,27.77
2018-08-12T17:10:18.035Z,27.82
2018-08-12T17:12:47.000Z,27.84
2018-08-12T17:15:18.100Z,27.88
2018-08-12T17:17:47.444Z,27.80
2018-08-12T17:20:18.118Z,28.02
2018-08-12T17:22:47.365Z,28.60
2018-08-12T17:25:16.092Z,28.59
2018-08-12T17:27:44.662Z,28.29
2018-08-12T17:30:15.156Z,27.79
2018-08-12T17:32:43.743Z,27.84
2018-08-12T17:35:12.558Z,27.66
2018-08-12T17:37:42.192Z,27.30
2018-08-12T17:40:12.373Z,27.11
2018-08-12T17:42:41.405Z,26.82
2018-08-12T17:45:11.585Z,26.98
2018-08-12T17:47:40.591Z,27.32
2018-08-12T17:50:10.720Z,27.29
2018-08-12T17:52:40.322Z,27.44
2018-08-12T17:55:09.988Z,27.43
2018-08-12T17:57:38.613Z,27.44
2018-08-12T18:00:17.076Z,27.22
2018-08-12T18:02:45.937Z,26.94
2018-08-12T18:05:14.747Z,27.13
2018-08-12T18:10:29.290Z,26.97
2018-08-12T18:12:57.875Z,27.00
2018-08-12T18:15:26.804Z,27.15
2018-08-12T18:17:55.417Z,27.19
2018-08-12T18:20:26.063Z,27.29
2018-08-12T18:22:55.356Z,27.20
2018-08-12T18:25:24.268Z,27.23
2018-08-12T18:27:53.518Z,27.27
2018-08-12T18:30:22.103Z,27.34
2018-08-12T18:32:52.135Z,27.28
2018-08-12T18:35:20.712Z,27.09
2018-08-12T18:37:49.291Z,26.87
2018-08-12T18:40:20.031Z,26.72
2018-08-12T18:42:48.626Z,26.57
2018-08-12T18:45:17.201Z,26.33
2018-08-12T18:47:45.774Z,26.06
2018-08-12T18:50:14.380Z,25.98
2018-08-12T18:52:42.997Z,25.85
2018-08-12T18:55:13.467Z,25.78
2018-08-12T18:57:42.059Z,25.77
2018-08-12T19:00:14.004Z,25.64
2018-08-12T19:02:43.764Z,25.55
2018-08-12T19:05:13.732Z,25.41
2018-08-12T19:07:43.601Z,25.35
2018-08-12T19:10:12.719Z,25.21
2018-08-12T19:12:43.116Z,25.16
2018-08-12T19:15:13.107Z,24.96
2018-08-12T19:17:42.085Z,24.99
2018-08-12T19:20:11.259Z,24.97
2018-08-12T19:22:40.775Z,25.01
2018-08-12T19:25:10.293Z,24.88
2018-08-12T19:27:39.017Z,24.83
2018-08-12T19:30:10.302Z,24.81
2018-08-12T19:32:39.523Z,24.67
2018-08-12T19:35:08.885Z,24.48
2018-08-12T19:37:37.488Z,24.42
2018-08-12T19:40:07.065Z,24.43
2018-08-12T19:42:36.045Z,24.32
2018-08-12T19:45:05.201Z,24.31
2018-08-12T19:47:35.309Z,24.21
2018-08-12T19:50:03.953Z,24.18
2018-08-12T19:52:32.936Z,24.11
2018-08-12T19:55:02.444Z,24.01
2018-08-12T19:57:31.513Z,23.86
2018-08-12T20:00:00.428Z,23.68
2018-08-12T20:02:29.401Z,23.56
2018-08-12T20:04:58.273Z,23.38
2018-08-12T20:07:26.928Z,23.29
2018-08-12T20:09:55.829Z,23.31
2018-08-12T20:12:24.674Z,23.11
2018-08-12T20:14:53.539Z,23.19
2018-08-12T20:17:22.537Z,23.07
2018-08-12T20:19:51.986Z,22.94
2018-08-12T20:22:20.925Z,22.75
2018-08-12T20:24:49.804Z,22.71
2018-08-12T20:27:18.654Z,22.64
2018-08-12T20:29:48.128Z,22.65
2018-08-12T20:32:16.714Z,22.57
2018-08-12T20:34:45.270Z,22.41
2018-08-12T20:37:14.319Z,22.28
2018-08-12T20:39:43.618Z,22.30
2018-08-12T20:42:16.546Z,22.21
2018-08-12T20:44:45.112Z,22.07
2018-08-12T20:47:13.767Z,22.14
2018-08-12T20:49:43.105Z,22.07
2018-08-12T20:52:11.956Z,21.95
2018-08-12T20:54:40.473Z,21.85
2018-08-12T20:57:09.446Z,21.86
2018-08-12T20:59:39.390Z,21.81
2018-08-12T21:02:08.222Z,21.72
2018-08-12T21:04:37.855Z,21.62
2018-08-12T21:07:07.420Z,21.51
2018-08-12T21:09:42.648Z,21.42
2018-08-12T21:12:12.277Z,21.49
2018-08-12T21:14:41.996Z,21.55
2018-08-12T21:17:10.872Z,21.40
2018-08-12T21:19:40.060Z,21.40
2018-08-12T21:22:08.653Z,21.19
2018-08-12T21:24:37.707Z,21.10
2018-08-12T21:27:06.801Z,21.01
2018-08-12T21:29:35.745Z,21.00
2018-08-12T21:32:05.352Z,20.95
2018-08-12T21:34:34.702Z,20.72
2018-08-12T21:37:04.030Z,20.68
2018-08-12T21:39:32.995Z,20.64
2018-08-12T21:42:01.945Z,20.55
2018-08-12T21:44:31.147Z,20.44
2018-08-12T21:46:59.805Z,20.38
2018-08-12T21:49:30.148Z,20.39
2018-08-12T21:51:58.752Z,20.29
2018-08-12T21:54:27.787Z,20.20
2018-08-12T21:56:57.363Z,20.16
2018-08-12T21:59:26.198Z,20.16
2018-08-12T22:01:54.865Z,20.27
2018-08-12T22:04:23.562Z,20.22
2018-08-12T22:06:52.377Z,20.23
2018-08-12T22:09:22.306Z,20.17
2018-08-12T22:11:50.865Z,20.03
2018-08-12T22:14:19.424Z,20.05
2018-08-12T22:16:49.042Z,20.02
2018-08-12T22:19:22.314Z,20.00
2018-08-12T22:21:51.587Z,19.99
2018-08-12T22:24:20.594Z,19.99
2018-08-12T22:26:49.729Z,19.93
2018-08-12T22:29:18.637Z,20.02
2018-08-12T22:31:47.994Z,19.90
2018-08-12T22:34:17.100Z,19.98
2018-08-12T22:36:45.907Z,19.99
2018-08-12T22:39:15.188Z,19.94
2018-08-12T22:41:43.763Z,19.88
2018-08-12T22:44:12.805Z,19.71
2018-08-12T22:46:42.390Z,19.73
2018-08-12T22:49:11.286Z,19.63
2018-08-12T22:51:41.665Z,19.56
2018-08-12T22:54:10.476Z,19.46
2018-08-12T22:56:39.025Z,19.38
2018-08-12T22:59:07.598Z,19.36
2018-08-12T23:01:37.708Z,19.31
2018-08-12T23:04:06.858Z,19.35
2018-08-12T23:06:35.433Z,19.19
2018-08-12T23:09:06.644Z,19.10
2018-08-12T23:11:35.210Z,19.18
2018-08-12T23:14:04.185Z,19.15
2018-08-12T23:16:44.123Z,19.14
2018-08-12T23:19:12.771Z,19.19
2018-08-12T23:21:42.749Z,19.23
2018-08-12T23:24:11.647Z,19.14
2018-08-12T23:26:41.229Z,19.06
2018-08-12T23:29:10.511Z,19.01
2018-08-12T23:31:39.294Z,19.05
2018-08-12T23:34:08.858Z,19.03
2018-08-12T23:36:37.712Z,19.04
2018-08-12T23:39:09.264Z,18.99
2018-08-12T23:41:37.844Z,18.93
2018-08-12T23:44:07.198Z,18.70
2018-08-12T23:46:36.328Z,18.71
2018-08-12T23:49:05.255Z,18.50
2018-08-12T23:51:34.604Z,18.40
2018-08-12T23:54:03.340Z,18.45
2018-08-12T23:56:32.031Z,18.33
2018-08-12T23:59:01.405Z,18.35
